Time;durP1;ratioP1;P1;durP2;ratioP2;P2;SDS_P1;SDS_P2;PMS_P1;PMS_P2;Temp;Humidity;BMP_temperature;BMP_pressure;BME280_temperature;BME280_humidity;BME280_pressure;Samples;Min_cycle;Max_cycle;Signal;HPM_P1;HPM_P2
2023/07/11 00:00:57;;;;;;;;;;;;;;;18.67;63.00;101047.80;105527;1288;61234;-84
2023/07/11 00:03:43;;;;;;;;;;;;;;;18.63;62.98;101052.33;105471;1286;59747;-83
2023/07/11 00:06:29;;;;;;;;;;;;;;;18.60;63.08;101055.77;105496;1288;75068;-83
2023/07/11 00:09:15;;;;;;;;;;;;;;;18.60;63.15;101055.42;105511;1286;67539;-83
2023/07/11 00:12:01;;;;;;;;;;;;;;;18.59;62.99;101048.97;105495;1286;72652;-83
2023/07/11 00:14:47;;;;;;;;;;;;;;;18.58;63.01;101042.58;105520;1286;61237;-84
2023/07/11 00:17:34;;;;;;;;;;;;;;;18.57;63.01;101044.52;105386;1288;61281;-83
2023/07/11 00:20:20;;;;;;;;;;;;;;;18.57;63.00;101043.32;105477;1287;73239;-83
2023/07/11 00:23:06;;;;;;;;;;;;;;;18.50;63.08;101043.25;105329;1286;204824;-83
2023/07/11 00:25:52;;;;;;;;;;;;;;;18.44;63.19;101046.45;105519;1288;75392;-83
2023/07/11 00:28:38;;;;;;;;;;;;;;;18.42;63.19;101046.55;105456;1288;61137;-83
2023/07/11 00:31:24;;;;;;;;;;;;;;;18.36;63.26;101055.50;105514;1288;61189;-84
2023/07/11 00:34:11;;;;;;;;;;;;;;;18.32;63.35;101057.59;105482;1287;77288;-83
2023/07/11 00:36:57;;;;;;;;;;;;;;;18.29;63.37;101059.64;105499;1288;69039;-83
2023/07/11 00:39:43;;;;;;;;;;;;;;;18.29;63.36;101060.52;105479;1286;72462;-84
2023/07/11 00:42:29;;;;;;;;;;;;;;;18.27;63.40;101060.94;105448;1287;61169;-83
2023/07/11 00:45:34;;;;;;;;;;;;;;;18.25;63.43;101059.81;105425;1288;61101;-83
2023/07/11 00:48:22;;;;;;;;;;;;;;;18.21;63.53;101061.02;105477;1286;73169;-83
2023/07/11 00:51:10;;;;;;;;;;;;;;;18.17;63.51;101064.90;105476;1288;68536;-83
2023/07/11 00:53:56;;;;;;;;;;;;;;;18.14;63.59;101066.02;105529;1287;72589;-83
2023/07/11 00:56:47;;;;;;;;;;;;;;;18.12;63.65;101067.17;105450;1288;62029;-83
2023/07/11 00:59:33;;;;;;;;;;;;;;;18.10;63.67;101073.52;105370;1289;59699;-83
2023/07/11 01:02:21;;;;;;;;;;;;;;;18.08;63.66;101073.43;105448;1288;73726;-83
2023/07/11 01:05:07;;;;;;;;;;;;;;;18.08;63.75;101076.41;105544;1288;67313;-83
2023/07/11 01:07:54;;;;;;;;;;;;;;;18.07;63.71;101077.84;105458;1288;74064;-84
2023/07/11 01:10:40;;;;;;;;;;;;;;;18.03;63.81;101076.05;105490;1286;61088;-84
2023/07/11 01:13:26;;;;;;;;;;;;;;;18.03;63.78;101076.27;105447;1288;61172;-83
2023/07/11 01:16:12;;;;;;;;;;;;;;;18.04;63.74;101073.76;105387;1288;73441;-83
2023/07/11 01:18:58;;;;;;;;;;;;;;;18.05;63.74;101074.24;105469;1288;67356;-83
2023/07/11 01:21:44;;;;;;;;;;;;;;;18.00;63.86;101070.60;105535;1288;71357;-84
2023/07/11 01:24:30;;;;;;;;;;;;;;;17.97;63.94;101070.02;105572;1288;61298;-84
2023/07/11 01:27:16;;;;;;;;;;;;;;;17.93;63.98;101070.19;105465;1286;59694;-84
2023/07/11 01:30:04;;;;;;;;;;;;;;;17.91;64.04;101072.38;105435;1288;75982;-84
2023/07/11 01:32:50;;;;;;;;;;;;;;;17.90;64.08;101075.38;105518;1286;68650;-84
2023/07/11 01:35:36;;;;;;;;;;;;;;;17.91;64.05;101077.77;105567;1286;71109;-83
2023/07/11 01:38:23;;;;;;;;;;;;;;;17.92;64.07;101076.35;105607;1288;63228;-84
2023/07/11 01:41:09;;;;;;;;;;;;;;;17.91;64.13;101074.12;105585;1291;61259;-83
2023/07/11 01:43:56;;;;;;;;;;;;;;;17.89;64.05;101077.52;105436;1288;73216;-84
2023/07/11 01:46:42;;;;;;;;;;;;;;;17.86;64.18;101081.95;105467;1285;67186;-83
2023/07/11 01:49:28;;;;;;;;;;;;;;;17.87;64.22;101082.10;105549;1287;72537;-83
2023/07/11 01:52:17;;;;;;;;;;;;;;;17.91;64.30;101081.63;105462;1291;62329;-83
2023/07/11 01:55:03;;;;;;;;;;;;;;;17.95;64.20;101081.46;105497;1288;61128;-83
2023/07/11 01:57:49;;;;;;;;;;;;;;;17.96;64.34;101081.77;105469;1291;74395;-83
2023/07/11 02:00:35;;;;;;;;;;;;;;;17.97;64.29;101080.87;105478;1288;68904;-84
2023/07/11 02:03:21;;;;;;;;;;;;;;;17.97;64.42;101081.57;105395;1287;71451;-83
2023/07/11 02:06:07;;;;;;;;;;;;;;;17.96;64.51;101085.25;105479;1287;61269;-84
2023/07/11 02:08:53;;;;;;;;;;;;;;;17.96;64.52;101075.31;105410;1286;61107;-84
2023/07/11 02:11:40;;;;;;;;;;;;;;;18.01;64.70;101080.86;105485;1286;77406;-84
2023/07/11 02:14:26;;;;;;;;;;;;;;;18.08;64.67;101082.88;105446;1290;68560;-83
2023/07/11 02:17:14;;;;;;;;;;;;;;;18.11;64.64;101086.92;105570;1286;70605;-84
2023/07/11 02:20:01;;;;;;;;;;;;;;;18.13;64.76;101089.80;105433;1287;61144;-84
2023/07/11 02:22:47;;;;;;;;;;;;;;;18.17;64.77;101090.02;105437;1287;61273;-84
2023/07/11 02:25:33;;;;;;;;;;;;;;;18.23;64.69;101093.58;105475;1287;74113;-84
2023/07/11 02:28:22;;;;;;;;;;;;;;;18.27;64.84;101090.83;105529;1287;67487;-84
2023/07/11 02:31:08;;;;;;;;;;;;;;;18.32;64.70;101087.95;105469;1287;74080;-84
2023/07/11 02:33:54;;;;;;;;;;;;;;;18.33;64.94;101088.13;105477;1287;61371;-83
2023/07/11 02:36:40;;;;;;;;;;;;;;;18.33;64.88;101085.48;105134;1286;278345;-84
2023/07/11 02:39:26;;;;;;;;;;;;;;;18.33;64.94;101087.05;105409;1286;74349;-84
2023/07/11 02:42:13;;;;;;;;;;;;;;;18.35;64.92;101090.63;105331;1291;70103;-83
2023/07/11 02:44:59;;;;;;;;;;;;;;;18.34;64.86;101094.02;105461;1288;72300;-84
2023/07/11 02:47:45;;;;;;;;;;;;;;;18.30;64.96;101093.99;105516;1286;59084;-84
2023/07/11 02:50:31;;;;;;;;;;;;;;;18.29;64.94;101090.53;105428;1289;61097;-84
2023/07/11 02:53:18;;;;;;;;;;;;;;;18.28;65.09;101085.33;105549;1289;73293;-84
2023/07/11 02:56:04;;;;;;;;;;;;;;;18.29;65.08;101084.59;105404;1287;66350;-84
2023/07/11 02:58:51;;;;;;;;;;;;;;;18.28;65.14;101085.33;105543;1288;73878;-84
2023/07/11 03:01:37;;;;;;;;;;;;;;;18.31;65.14;101086.45;105352;1286;59892;-84
2023/07/11 03:04:23;;;;;;;;;;;;;;;18.30;65.11;101090.50;105478;1286;61333;-84
2023/07/11 03:07:09;;;;;;;;;;;;;;;18.30;65.12;101091.18;105452;1288;73439;-84
2023/07/11 03:09:55;;;;;;;;;;;;;;;18.30;65.14;101089.95;105596;1288;67367;-84
2023/07/11 03:12:41;;;;;;;;;;;;;;;18.31;65.11;101089.08;105446;1287;73556;-84
2023/07/11 03:15:28;;;;;;;;;;;;;;;18.35;65.16;101085.42;105445;1286;61232;-84
2023/07/11 03:18:14;;;;;;;;;;;;;;;18.38;65.18;101085.83;105570;1288;61221;-84
2023/07/11 03:21:01;;;;;;;;;;;;;;;18.37;65.18;101091.77;105590;1288;73272;-84
2023/07/11 03:23:47;;;;;;;;;;;;;;;18.39;64.99;101089.23;105523;1287;68272;-83
2023/07/11 03:26:33;;;;;;;;;;;;;;;18.41;65.02;101087.77;105531;1288;72578;-84
2023/07/11 03:29:19;;;;;;;;;;;;;;;18.46;65.03;101088.46;105572;1289;61004;-83
2023/07/11 03:32:06;;;;;;;;;;;;;;;18.46;65.03;101090.86;105596;1286;59939;-84
2023/07/11 03:34:52;;;;;;;;;;;;;;;18.48;65.07;101091.70;105509;1288;75321;-83
2023/07/11 03:37:39;;;;;;;;;;;;;;;18.52;65.09;101098.33;105515;1286;67203;-84
2023/07/11 03:40:25;;;;;;;;;;;;;;;18.56;65.14;101101.48;105580;1286;72220;-84
2023/07/11 03:43:11;;;;;;;;;;;;;;;18.53;65.12;101102.45;105430;1287;60946;-84
2023/07/11 03:45:57;;;;;;;;;;;;;;;18.55;65.18;101101.54;105430;1287;61780;-84
2023/07/11 03:48:43;;;;;;;;;;;;;;;18.61;65.24;101099.92;105626;1287;79316;-83
2023/07/11 03:51:29;;;;;;;;;;;;;;;18.64;65.27;101098.73;105458;1288;68852;-84
2023/07/11 03:54:15;;;;;;;;;;;;;;;18.67;65.28;101100.73;105374;1288;72751;-84
2023/07/11 03:57:01;;;;;;;;;;;;;;;18.72;65.43;101103.08;105547;1286;61142;-84
2023/07/11 03:59:47;;;;;;;;;;;;;;;18.82;65.19;101105.13;105512;1286;61148;-84
2023/07/11 04:02:33;;;;;;;;;;;;;;;18.89;65.18;101103.77;105502;1287;73186;-84
2023/07/11 04:05:19;;;;;;;;;;;;;;;18.95;65.16;101109.98;105560;1289;68537;-84
2023/07/11 04:08:05;;;;;;;;;;;;;;;18.94;65.18;101107.05;105390;1291;71397;-84
2023/07/11 04:10:51;;;;;;;;;;;;;;;18.97;65.28;101105.53;105600;1291;61148;-84
2023/07/11 04:13:37;;;;;;;;;;;;;;;19.03;65.39;101103.33;105513;1288;59223;-84
2023/07/11 04:16:24;;;;;;;;;;;;;;;19.04;65.17;101102.40;105532;1286;73180;-84
2023/07/11 04:19:10;;;;;;;;;;;;;;;19.09;65.31;101107.09;105442;1286;67179;-84
2023/07/11 04:21:56;;;;;;;;;;;;;;;19.14;65.33;101106.52;105584;1286;71096;-84
2023/07/11 04:24:42;;;;;;;;;;;;;;;19.17;65.53;101111.11;105501;1291;61243;-84
2023/07/11 04:27:28;;;;;;;;;;;;;;;19.22;65.50;101110.90;105447;1287;61106;-84
2023/07/11 04:30:14;;;;;;;;;;;;;;;19.27;65.44;101113.43;105456;1289;74138;-84
2023/07/11 04:33:00;;;;;;;;;;;;;;;19.33;65.41;101109.84;105595;1286;68883;-84
2023/07/11 04:35:47;;;;;;;;;;;;;;;19.44;65.51;101113.75;105492;1289;72326;-84
2023/07/11 04:38:33;;;;;;;;;;;;;;;19.54;65.44;101108.44;105384;1288;60124;-84
2023/07/11 04:41:19;;;;;;;;;;;;;;;19.61;65.47;101113.36;105507;1290;61569;-84
2023/07/11 04:44:06;;;;;;;;;;;;;;;19.68;65.49;101114.95;105549;1287;74106;-84
2023/07/11 04:46:52;;;;;;;;;;;;;;;19.73;65.42;101112.63;105372;1289;67344;-84
2023/07/11 04:49:38;;;;;;;;;;;;;;;19.74;65.33;101112.02;105382;1288;74483;-84
2023/07/11 04:52:24;;;;;;;;;;;;;;;19.74;65.33;101113.09;105456;1288;62348;-83
2023/07/11 04:55:11;;;;;;;;;;;;;;;19.74;65.53;101114.14;105484;1286;59991;-84
2023/07/11 04:57:57;;;;;;;;;;;;;;;19.76;65.39;101114.17;105434;1291;73152;-84
2023/07/11 05:00:43;;;;;;;;;;;;;;;19.79;65.57;101114.58;105511;1286;69206;-84
2023/07/11 05:03:29;;;;;;;;;;;;;;;19.88;65.41;101112.98;105343;1288;72148;-84
2023/07/11 05:06:15;;;;;;;;;;;;;;;20.00;65.44;101112.73;105574;1286;60789;-84
2023/07/11 05:09:02;;;;;;;;;;;;;;;20.14;65.43;101107.70;105446;1287;61116;-84
2023/07/11 05:11:48;;;;;;;;;;;;;;;20.34;65.35;101109.86;105591;1286;72258;-84
2023/07/11 05:14:34;;;;;;;;;;;;;;;20.51;65.34;101112.00;105510;1288;70172;-84
2023/07/11 05:17:20;;;;;;;;;;;;;;;20.81;65.39;101112.59;105477;1286;72457;-84
2023/07/11 05:20:07;;;;;;;;;;;;;;;21.13;65.42;101115.54;105612;1286;61227;-84
2023/07/11 05:22:53;;;;;;;;;;;;;;;21.56;65.25;101116.06;105541;1286;61217;-84
2023/07/11 05:25:39;;;;;;;;;;;;;;;22.14;65.20;101118.48;105461;1288;73388;-84
2023/07/11 05:28:25;;;;;;;;;;;;;;;22.69;64.58;101117.42;105429;1289;67186;-84
2023/07/11 05:31:11;;;;;;;;;;;;;;;23.17;64.41;101122.27;105421;1288;74103;-84
2023/07/11 05:33:58;;;;;;;;;;;;;;;23.71;64.23;101123.35;105358;1286;61178;-84
2023/07/11 05:36:44;;;;;;;;;;;;;;;24.24;63.99;101120.95;105444;1289;61228;-84
2023/07/11 05:39:30;;;;;;;;;;;;;;;24.73;63.82;101119.70;105536;1291;73141;-84
2023/07/11 05:42:16;;;;;;;;;;;;;;;25.08;63.50;101115.17;105442;1288;67417;-84
2023/07/11 05:45:02;;;;;;;;;;;;;;;25.32;63.30;101111.91;105415;1288;73966;-84
2023/07/11 05:47:48;;;;;;;;;;;;;;;25.59;63.00;101107.36;105490;1286;61393;-84
2023/07/11 05:50:34;;;;;;;;;;;;;;;25.95;63.02;101107.26;105591;1291;61073;-84
2023/07/11 05:53:20;;;;;;;;;;;;;;;26.45;62.76;101109.56;105451;1287;73534;-84
2023/07/11 05:56:07;;;;;;;;;;;;;;;26.79;62.28;101110.11;105553;1285;70072;-84
2023/07/11 05:58:53;;;;;;;;;;;;;;;27.05;61.92;101113.95;105391;1289;71301;-84
2023/07/11 06:01:39;;;;;;;;;;;;;;;27.30;61.63;101113.95;105459;1286;61183;-84
2023/07/11 06:04:25;;;;;;;;;;;;;;;27.56;61.52;101124.84;105551;1286;59550;-84
2023/07/11 06:07:11;;;;;;;;;;;;;;;27.64;61.29;101124.36;105344;1286;73442;-85
2023/07/11 06:09:57;;;;;;;;;;;;;;;27.85;61.04;101122.02;105517;1286;68553;-84
2023/07/11 06:12:43;;;;;;;;;;;;;;;27.97;60.73;101120.89;105507;1291;71939;-85
2023/07/11 06:15:29;;;;;;;;;;;;;;;28.21;60.90;101120.45;105360;1287;59869;-85
2023/07/11 06:18:15;;;;;;;;;;;;;;;28.65;60.54;101123.71;105424;1285;59630;-84
2023/07/11 06:21:02;;;;;;;;;;;;;;;28.96;60.03;101124.48;105584;1285;73071;-85
2023/07/11 06:23:48;;;;;;;;;;;;;;;29.14;59.96;101123.98;105604;1286;67317;-84
2023/07/11 06:26:34;;;;;;;;;;;;;;;29.25;59.55;101129.25;105402;1287;72122;-85
2023/07/11 06:29:20;;;;;;;;;;;;;;;29.26;59.17;101129.16;105530;1291;59034;-85
2023/07/11 06:32:07;;;;;;;;;;;;;;;28.92;58.79;101123.41;105370;1289;60583;-85
2023/07/11 06:34:53;;;;;;;;;;;;;;;28.72;59.08;101125.06;105439;1286;76610;-84
2023/07/11 06:37:39;;;;;;;;;;;;;;;29.18;58.96;101119.58;105405;1287;68736;-85
2023/07/11 06:40:25;;;;;;;;;;;;;;;29.18;58.25;101124.16;105494;1289;71157;-85
2023/07/11 06:43:11;;;;;;;;;;;;;;;29.37;58.41;101121.10;105370;1286;61375;-84
2023/07/11 06:45:59;;;;;;;;;;;;;;;30.30;58.12;101123.48;105574;1286;61198;-85
2023/07/11 06:48:45;;;;;;;;;;;;;;;31.17;57.52;101124.91;105455;1286;74242;-85
2023/07/11 06:51:31;;;;;;;;;;;;;;;32.03;57.16;101123.71;105507;1286;68554;-84
2023/07/11 06:54:17;;;;;;;;;;;;;;;32.55;56.75;101120.81;105456;1286;72444;-84
2023/07/11 06:57:03;;;;;;;;;;;;;;;32.86;56.81;101121.77;105388;1287;61428;-84
2023/07/11 06:59:50;;;;;;;;;;;;;;;32.77;56.70;101118.08;105444;1286;59273;-84
2023/07/11 07:02:35;;;;;;;;;;;;;;;32.94;56.63;101116.83;105397;1286;74317;-84
2023/07/11 07:05:22;;;;;;;;;;;;;;;33.44;55.81;101119.66;105266;1286;299986;-84
2023/07/11 07:08:08;;;;;;;;;;;;;;;33.92;54.81;101118.33;105454;1286;73097;-84
2023/07/11 07:10:54;;;;;;;;;;;;;;;34.72;54.13;101116.46;105309;1287;59362;-84
2023/07/11 07:13:40;;;;;;;;;;;;;;;35.46;53.73;101112.73;105502;1290;61131;-85
2023/07/11 07:16:28;;;;;;;;;;;;;;;35.55;53.33;101107.05;105468;1286;73371;-84
2023/07/11 07:19:14;;;;;;;;;;;;;;;35.35;52.90;101108.04;105296;1287;67339;-84
2023/07/11 07:22:00;;;;;;;;;;;;;;;35.31;52.84;101115.71;105447;1286;72426;-84
2023/07/11 07:24:46;;;;;;;;;;;;;;;36.20;52.29;101111.55;105437;1291;61096;-84
2023/07/11 07:27:33;;;;;;;;;;;;;;;36.68;51.49;101104.69;105314;1287;61020;-85
2023/07/11 07:30:19;;;;;;;;;;;;;;;36.19;51.65;101105.86;105442;1286;73619;-84
2023/07/11 07:33:05;;;;;;;;;;;;;;;35.93;51.73;101102.28;105339;1287;66732;-84
2023/07/11 07:35:59;;;;;;;;;;;;;;;35.57;51.73;101096.08;105319;1286;71108;-84
2023/07/11 07:38:45;;;;;;;;;;;;;;;35.27;51.41;101100.54;105480;1286;59277;-84
2023/07/11 07:41:31;;;;;;;;;;;;;;;35.44;50.89;101096.77;105445;1286;59025;-84
2023/07/11 07:44:17;;;;;;;;;;;;;;;35.23;50.52;101095.69;105393;1288;73371;-84
2023/07/11 07:47:03;;;;;;;;;;;;;;;34.95;50.48;101092.55;105430;1292;67207;-85
2023/07/11 07:49:49;;;;;;;;;;;;;;;35.30;50.24;101086.22;105365;1286;72431;-84
2023/07/11 07:52:36;;;;;;;;;;;;;;;36.73;49.20;101085.27;105325;1286;61813;-84
2023/07/11 07:55:22;;;;;;;;;;;;;;;38.40;47.55;101086.11;105390;1287;59454;-84
2023/07/11 07:58:10;;;;;;;;;;;;;;;39.16;47.00;101084.38;105423;1291;73220;-84
2023/07/11 08:00:56;;;;;;;;;;;;;;;40.32;46.30;101083.28;105547;1286;70083;-84
2023/07/11 08:03:42;;;;;;;;;;;;;;;41.53;45.73;101082.36;105423;1291;72344;-85
2023/07/11 08:06:28;;;;;;;;;;;;;;;42.96;45.48;101076.34;105440;1287;61182;-85
2023/07/11 08:09:14;;;;;;;;;;;;;;;44.26;44.93;101070.50;105495;1286;60874;-85
2023/07/11 08:12:24;;;;;;;;;;;;;;;44.41;44.30;101068.47;105391;1286;73534;-85
2023/07/11 08:15:11;;;;;;;;;;;;;;;42.70;44.28;101072.63;105538;1291;69165;-84
2023/07/11 08:17:57;;;;;;;;;;;;;;;43.60;43.82;101072.59;105490;1286;73171;-84
2023/07/11 08:20:43;;;;;;;;;;;;;;;44.92;43.36;101068.24;105399;1288;60594;-85
2023/07/11 08:23:29;;;;;;;;;;;;;;;46.07;42.41;101074.69;105532;1287;61388;-85
2023/07/11 08:26:15;;;;;;;;;;;;;;;46.98;41.92;101074.36;105363;1287;64662;-85
2023/07/11 08:29:01;;;;;;;;;;;;;;;47.99;41.34;101072.09;105550;1286;62811;-85
2023/07/11 08:31:47;;;;;;;;;;;;;;;48.86;40.50;101067.65;105484;1291;62830;-85
2023/07/11 08:34:33;;;;;;;;;;;;;;;49.58;39.89;101069.38;105464;1287;61356;-85
2023/07/11 08:37:19;;;;;;;;;;;;;;;50.04;39.14;101069.98;105565;1289;61286;-85
2023/07/11 08:40:06;;;;;;;;;;;;;;;50.32;38.28;101073.08;105325;1288;64613;-85
2023/07/11 08:42:52;;;;;;;;;;;;;;;50.68;37.61;101072.73;105595;1288;61167;-85
2023/07/11 08:45:46;;;;;;;;;;;;;;;50.94;36.92;101075.39;105550;1291;63131;-85
2023/07/11 08:48:35;;;;;;;;;;;;;;;50.99;36.24;101074.10;105564;1286;61267;-85
2023/07/11 08:51:36;;;;;;;;;;;;;;;49.83;35.32;101069.43;105501;1288;59945;-85
2023/07/11 08:54:35;;;;;;;;;;;;;;;49.27;35.07;101063.81;105436;1289;66020;-84
2023/07/11 08:57:23;;;;;;;;;;;;;;;49.70;33.99;101063.08;105502;1286;59219;-84
2023/07/11 09:00:15;;;;;;;;;;;;;;;49.85;33.06;101057.98;105471;1286;63994;-84
2023/07/11 09:03:13;;;;;;;;;;;;;;;48.88;32.16;101057.36;105520;1286;61298;-84
2023/07/11 09:06:02;;;;;;;;;;;;;;;45.60;31.94;101046.23;105503;1289;61144;-84
2023/07/11 09:08:54;;;;;;;;;;;;;;;42.84;32.28;101046.84;105535;1286;73344;-84
2023/07/11 09:11:45;;;;;;;;;;;;;;;40.56;32.09;101044.56;105469;1285;67470;-83
2023/07/11 09:14:51;;;;;;;;;;;;;;;38.55;31.78;101037.85;106565;1286;72553;-84
2023/07/11 09:17:56;;;;;;;;;;;;;;;36.68;31.62;101038.58;106531;1286;58992;-84
2023/07/11 09:20:48;;;;;;;;;;;;;;;35.29;31.48;101041.18;106538;1285;59489;-84
2023/07/11 09:23:46;;;;;;;;;;;;;;;34.13;31.21;101040.56;106484;1288;73406;-83
2023/07/11 09:26:35;;;;;;;;;;;;;;;33.04;31.23;101035.19;106208;1285;67379;-83
2023/07/11 09:29:22;;;;;;;;;;;;;;;32.17;31.15;101032.97;105468;1285;72849;-83
2023/07/11 09:32:09;;;;;;;;;;;;;;;31.29;31.03;101029.73;105335;1285;61279;-82
2023/07/11 09:34:55;;;;;;;;;;;;;;;30.44;31.28;101030.00;105529;1286;62938;-85
2023/07/11 09:37:45;;;;;;;;;;;;;;;29.85;31.47;101029.77;105401;1287;74221;-83
2023/07/11 09:40:51;;;;;;;;;;;;;;;29.41;31.57;101028.39;105517;1286;69966;-83
2023/07/11 09:43:37;;;;;;;;;;;;;;;28.98;31.73;101025.59;105553;1290;71288;-83
2023/07/11 09:46:25;;;;;;;;;;;;;;;28.81;32.06;101024.71;105464;1286;60916;-83
2023/07/11 09:49:21;;;;;;;;;;;;;;;28.68;32.06;101021.98;105380;1287;59318;-83
2023/07/11 09:52:09;;;;;;;;;;;;;;;28.44;32.19;101017.80;106395;1288;73180;-84
2023/07/11 09:54:56;;;;;;;;;;;;;;;28.12;32.04;101012.70;106562;1286;67801;-84
2023/07/11 09:57:45;;;;;;;;;;;;;;;27.81;32.22;101008.39;106424;1287;72450;-83
2023/07/11 10:00:31;;;;;;;;;;;;;;;27.59;32.60;101004.33;106087;1287;61227;-83
2023/07/11 10:03:22;;;;;;;;;;;;;;;27.46;32.73;101015.11;105561;1287;61394;-83
2023/07/11 10:06:21;;;;;;;;;;;;;;;27.37;32.95;101011.45;105391;1286;74483;-83
2023/07/11 10:09:15;;;;;;;;;;;;;;;27.31;32.98;101016.36;105290;1287;68502;-83
2023/07/11 10:12:02;;;;;;;;;;;;;;;27.31;33.01;101014.75;105373;1287;72643;-83
2023/07/11 10:14:53;;;;;;;;;;;;;;;27.30;33.19;101007.94;105420;1286;60599;-83
2023/07/11 10:17:41;;;;;;;;;;;;;;;27.24;33.15;101004.54;105416;1286;61147;-83
2023/07/11 10:20:28;;;;;;;;;;;;;;;27.18;33.24;101000.90;105255;1288;73312;-83
2023/07/11 10:23:17;;;;;;;;;;;;;;;27.02;33.52;100997.62;105344;1286;68002;-83
2023/07/11 10:26:30;;;;;;;;;;;;;;;26.88;33.92;100993.58;105310;1291;75751;-83
2023/07/11 10:29:19;;;;;;;;;;;;;;;26.82;33.92;100994.39;104782;1297;61159;-83
2023/07/11 10:32:09;;;;;;;;;;;;;;;26.78;33.99;100996.52;104759;1292;61313;-83
2023/07/11 10:34:57;;;;;;;;;;;;;;;26.70;34.07;100993.55;104807;1294;73272;-83
2023/07/11 10:37:46;;;;;;;;;;;;;;;26.63;34.22;100991.07;97536;1292;10002780;-83
2023/07/11 10:40:43;;;;;;;;;;;;;;;26.54;34.06;100992.02;104759;1293;59821;-83
2023/07/11 10:43:32;;;;;;;;;;;;;;;26.36;34.23;100985.93;104744;1293;73268;-83
2023/07/11 10:46:28;;;;;;;;;;;;;;;26.31;34.42;100989.51;104715;1294;67286;-83
2023/07/11 10:49:16;;;;;;;;;;;;;;;26.29;34.69;100988.42;104728;1293;71687;-83
2023/07/11 10:52:08;;;;;;;;;;;;;;;26.25;34.89;100990.25;104719;1293;61257;-83
2023/07/11 10:55:01;;;;;;;;;;;;;;;26.30;35.38;100988.35;104774;1293;61334;-85
2023/07/11 10:57:51;;;;;;;;;;;;;;;26.44;35.44;100982.16;104731;1294;73267;-85
2023/07/11 11:00:46;;;;;;;;;;;;;;;26.58;35.57;100983.86;104800;1293;67279;-85
2023/07/11 11:03:32;;;;;;;;;;;;;;;26.74;35.53;100981.05;104750;1294;74198;-85
2023/07/11 11:06:37;;;;;;;;;;;;;;;26.82;35.25;100973.36;105103;1286;61429;-85
2023/07/11 11:09:38;;;;;;;;;;;;;;;26.86;35.33;100969.29;105436;1286;61334;-85
2023/07/11 11:12:25;;;;;;;;;;;;;;;26.92;35.28;100972.16;105368;1287;73272;-85
2023/07/11 11:15:30;;;;;;;;;;;;;;;27.05;35.44;100972.18;105412;1287;67804;-85
2023/07/11 11:18:35;;;;;;;;;;;;;;;27.17;35.25;100968.40;105460;1286;72214;-85
2023/07/11 11:21:31;;;;;;;;;;;;;;;27.22;35.52;100971.41;105425;1286;61225;-85
2023/07/11 11:24:29;;;;;;;;;;;;;;;27.32;35.55;100967.55;98145;1287;10001741;-85
2023/07/11 11:27:34;;;;;;;;;;;;;;;27.42;35.73;100960.45;105457;1286;67644;-85
2023/07/11 11:30:43;;;;;;;;;;;;;;;27.50;35.77;100958.34;105433;1286;71131;-85
2023/07/11 11:33:29;;;;;;;;;;;;;;;27.53;35.44;100957.04;101525;1286;5164467;-85
2023/07/11 11:36:26;;;;;;;;;;;;;;;27.52;35.36;100956.55;105406;1285;73176;-85
2023/07/11 11:39:15;;;;;;;;;;;;;;;27.55;35.46;100951.73;105465;1286;68612;-85
2023/07/11 11:42:09;;;;;;;;;;;;;;;27.41;35.27;100950.27;105476;1286;71520;-84
2023/07/11 11:44:59;;;;;;;;;;;;;;;27.25;35.45;100943.68;105417;1290;61398;-85
2023/07/11 11:47:46;;;;;;;;;;;;;;;27.32;35.61;100942.65;105365;1288;62865;-85
2023/07/11 11:50:36;;;;;;;;;;;;;;;27.33;35.57;100946.39;105467;1286;75461;-85
2023/07/11 11:53:30;;;;;;;;;;;;;;;27.36;35.62;100945.83;105447;1286;71337;-85
2023/07/11 11:56:17;;;;;;;;;;;;;;;27.29;35.49;100941.48;105437;1286;71144;-85
2023/07/11 11:59:05;;;;;;;;;;;;;;;27.21;35.57;100937.48;105416;1286;61254;-85
2023/07/11 12:01:55;;;;;;;;;;;;;;;27.24;35.73;100936.03;105460;1286;59126;-85
2023/07/11 12:04:59;;;;;;;;;;;;;;;27.31;35.77;100938.59;105433;1287;73156;-85
2023/07/11 12:08:05;;;;;;;;;;;;;;;27.34;35.83;100938.01;105396;1289;67482;-85
2023/07/11 12:11:07;;;;;;;;;;;;;;;27.38;35.85;100932.92;105382;1287;71207;-85
2023/07/11 12:14:18;;;;;;;;;;;;;;;27.37;35.83;100928.92;105376;1286;59496;-85
2023/07/11 12:17:25;;;;;;;;;;;;;;;27.38;35.70;100933.84;105410;1286;61125;-85
2023/07/11 12:20:13;;;;;;;;;;;;;;;27.32;35.59;100930.72;105399;1286;74879;-85
2023/07/11 12:23:02;;;;;;;;;;;;;;;27.26;35.63;100929.63;105387;1287;67142;-85
2023/07/11 12:26:07;;;;;;;;;;;;;;;27.22;35.63;100923.60;105370;1286;71421;-85
2023/07/11 12:28:54;;;;;;;;;;;;;;;27.16;35.67;100919.67;105426;1288;61216;-85
2023/07/11 12:31:40;;;;;;;;;;;;;;;27.07;35.80;100916.14;105353;1286;61496;-85
2023/07/11 12:34:26;;;;;;;;;;;;;;;27.01;35.80;100918.92;105235;1286;73328;-85
2023/07/11 12:37:12;;;;;;;;;;;;;;;26.97;35.82;100919.46;105427;1286;68257;-85
2023/07/11 12:40:28;;;;;;;;;;;;;;;26.96;35.95;100918.77;105370;1286;71241;-85
2023/07/11 12:43:16;;;;;;;;;;;;;;;26.97;35.81;100913.27;104940;1291;61414;-85
2023/07/11 12:46:12;;;;;;;;;;;;;;;26.99;35.86;100911.67;104957;1291;61586;-85
2023/07/11 12:48:58;;;;;;;;;;;;;;;27.05;35.86;100912.91;105019;1291;73238;-84
2023/07/11 12:51:44;;;;;;;;;;;;;;;27.10;35.91;100918.35;105018;1291;67855;-84
2023/07/11 12:54:30;;;;;;;;;;;;;;;27.18;35.95;100922.35;104912;1291;72180;-84
2023/07/11 12:57:25;;;;;;;;;;;;;;;27.21;35.75;100918.73;105016;1291;61137;-84
2023/07/11 13:00:22;;;;;;;;;;;;;;;27.28;35.99;100917.62;105036;1292;60633;-84
2023/07/11 13:03:34;;;;;;;;;;;;;;;27.40;36.04;100914.58;104885;1291;73400;-84
2023/07/11 13:06:23;;;;;;;;;;;;;;;27.49;35.87;100912.57;105008;1291;67173;-84
2023/07/11 13:09:10;;;;;;;;;;;;;;;27.53;35.89;100913.83;104959;1290;72698;-83
2023/07/11 13:11:56;;;;;;;;;;;;;;;27.52;36.01;100909.45;104972;1290;60110;-83
2023/07/11 13:14:44;;;;;;;;;;;;;;;27.58;36.15;100906.61;104964;1291;59817;-83
2023/07/11 13:17:30;;;;;;;;;;;;;;;27.66;35.98;100906.30;104996;1291;73371;-83
2023/07/11 13:20:21;;;;;;;;;;;;;;;27.75;35.88;100904.71;105208;1285;67279;-83
2023/07/11 13:23:09;;;;;;;;;;;;;;;27.80;35.93;100907.45;105459;1285;71206;-83
2023/07/11 13:25:55;;;;;;;;;;;;;;;27.84;35.93;100899.33;105405;1286;61139;-83
2023/07/11 13:28:41;;;;;;;;;;;;;;;27.85;36.08;100896.29;105390;1285;61163;-83
2023/07/11 13:31:30;;;;;;;;;;;;;;;27.92;36.08;100897.41;105385;1287;73138;-83
2023/07/11 13:34:18;;;;;;;;;;;;;;;27.98;35.96;100894.94;105494;1286;71399;-83
2023/07/11 13:37:07;;;;;;;;;;;;;;;28.04;35.80;100899.14;105361;1288;71386;-83
2023/07/11 13:39:53;;;;;;;;;;;;;;;27.98;35.75;100902.06;105329;1286;59368;-83
2023/07/11 13:42:39;;;;;;;;;;;;;;;27.85;35.69;100896.77;105411;1285;61025;-83
2023/07/11 13:45:28;;;;;;;;;;;;;;;27.78;35.76;100892.63;105271;1288;73250;-83
2023/07/11 13:48:18;;;;;;;;;;;;;;;27.76;35.80;100885.51;105420;1285;67721;-83
2023/07/11 13:51:16;;;;;;;;;;;;;;;27.79;35.91;100885.92;105443;1285;73089;-83
2023/07/11 13:54:13;;;;;;;;;;;;;;;27.80;35.92;100878.63;105423;1286;61116;-83
2023/07/11 13:56:59;;;;;;;;;;;;;;;27.83;36.04;100875.70;105416;1286;59263;-83
2023/07/11 13:59:46;;;;;;;;;;;;;;;27.89;36.05;100873.27;105326;1286;73288;-83
2023/07/11 14:02:34;;;;;;;;;;;;;;;27.97;35.93;100881.23;105397;1286;68994;-83
2023/07/11 14:05:22;;;;;;;;;;;;;;;28.02;35.76;100879.38;105403;1287;71239;-83
2023/07/11 14:08:08;;;;;;;;;;;;;;;28.05;35.81;100876.36;105381;1285;61123;-83
2023/07/11 14:10:55;;;;;;;;;;;;;;;28.03;35.71;100877.73;105435;1285;61068;-83
2023/07/11 14:13:41;;;;;;;;;;;;;;;27.98;35.61;100872.41;105338;1285;76209;-83